Time;durP1;ratioP1;P1;durP2;ratioP2;P2;SDS_P1;SDS_P2;PMS_P1;PMS_P2;Temp;Humidity;BMP_temperature;BMP_pressure;BME280_temperature;BME280_humidity;BME280_pressure;Samples;Min_cycle;Max_cycle;Signal;HPM_P1;HPM_P2
2021/10/31 00:01:22;;;;;;;71.13;51.50;;;179.30;2252.80;;;;;;5095771;28;20036;-76
2021/10/31 00:03:47;;;;;;;83.05;55.40;;;179.20;2252.80;;;;;;5094150;28;20034;-74
2021/10/31 00:06:13;;;;;;;73.05;49.20;;;154.50;2252.80;;;;;;5094171;28;20031;-76
2021/10/31 00:08:39;;;;;;;72.20;49.65;;;179.20;2252.80;;;;;;5094339;28;20020;-76
2021/10/31 00:11:06;;;;;;;69.53;48.38;;;154.50;2252.80;;;;;;5094234;28;20468;-78
2021/10/31 00:13:32;;;;;;;70.25;46.80;;;154.50;2252.80;;;;;;5094318;28;20020;-81
2021/10/31 00:15:58;;;;;;;73.10;47.65;;;154.40;2252.80;;;;;;5094033;28;20073;-78
2021/10/31 00:18:25;;;;;;;61.03;42.22;;;154.30;2252.80;;;;;;5094168;28;20027;-79
2021/10/31 00:20:51;;;;;;;62.28;43.33;;;154.30;2252.80;;;;;;5094172;28;20020;-77
2021/10/31 00:23:18;;;;;;;71.78;43.83;;;179.20;2252.80;;;;;;5093860;28;20364;-79
2021/10/31 00:25:43;;;;;;;77.38;53.58;;;154.50;2252.80;;;;;;5093937;28;20030;-78
2021/10/31 00:28:09;;;;;;;84.32;55.50;;;179.20;2252.80;;;;;;5094144;28;20115;-79
2021/10/31 00:30:35;;;;;;;101.35;67.28;;;179.40;2252.80;;;;;;5093364;28;20464;-81
2021/10/31 00:33:01;;;;;;;100.82;67.40;;;179.20;2252.80;;;;;;5095290;28;20043;-80
2021/10/31 00:35:27;;;;;;;93.78;61.72;;;179.20;2252.80;;;;;;5093950;28;20120;-77
2021/10/31 00:37:52;;;;;;;89.95;58.80;;;154.40;2252.80;;;;;;5093654;28;20016;-78
2021/10/31 00:40:20;;;;;;;78.95;51.92;;;154.30;2252.80;;;;;;5093224;28;20020;-81
2021/10/31 00:42:46;;;;;;;92.50;57.25;;;154.30;2252.80;;;;;;5094855;28;20023;-81
2021/10/31 00:45:12;;;;;;;86.57;52.95;;;154.30;2252.80;;;;;;5093318;28;20024;-76
2021/10/31 00:47:38;;;;;;;83.82;49.42;;;154.30;2252.80;;;;;;5093619;28;20466;-79
2021/10/31 00:50:05;;;;;;;75.30;47.65;;;154.50;2252.80;;;;;;5093645;28;20061;-78
2021/10/31 00:52:32;;;;;;;63.85;42.90;;;154.30;2252.80;;;;;;5093209;28;20028;-76
2021/10/31 00:54:59;;;;;;;61.33;41.38;;;154.20;2252.80;;;;;;5093245;28;20024;-80
2021/10/31 00:57:25;;;;;;;65.50;43.92;;;154.20;2252.80;;;;;;5094891;28;20076;-80
2021/10/31 00:59:52;;;;;;;85.80;51.17;;;154.10;2252.80;;;;;;5093168;28;20020;-79
2021/10/31 01:02:18;;;;;;;75.22;46.63;;;153.90;2252.80;;;;;;5094840;28;20016;-75
2021/10/31 01:04:56;;;;;;;63.05;41.33;;;153.90;2252.80;;;;;;5092988;28;20416;-76
2021/10/31 01:07:52;;;;;;;63.63;41.92;;;153.60;2252.80;;;;;;5094719;28;20023;-78
2021/10/31 01:10:18;;;;;;;66.82;45.28;;;153.60;2252.80;;;;;;5093332;28;20073;-77
2021/10/31 01:13:07;;;;;;;66.45;42.35;;;153.70;2252.80;;;;;;5092970;28;20422;-78
2021/10/31 01:15:54;;;;;;;64.40;42.42;;;153.80;2252.80;;;;;;5064621;28;20032;-75
2021/10/31 01:18:46;;;;;;;69.88;45.95;;;153.60;2252.80;;;;;;5094383;28;20019;-77
2021/10/31 01:21:29;;;;;;;97.32;56.55;;;153.60;2252.80;;;;;;5093166;28;20103;-78
2021/10/31 01:24:16;;;;;;;74.50;47.10;;;128.90;2252.80;;;;;;5093153;28;20593;-77
2021/10/31 01:26:59;;;;;;;69.68;42.45;;;153.60;2252.80;;;;;;5092693;28;20028;-77
2021/10/31 01:30:03;;;;;;;60.72;40.30;;;128.90;2252.80;;;;;;5092958;28;20460;-74
2021/10/31 01:32:48;;;;;;;66.05;42.75;;;128.70;2252.80;;;;;;5092948;28;20020;-78
2021/10/31 01:35:41;;;;;;;70.53;41.97;;;128.70;2252.80;;;;;;5092958;28;20107;-76
2021/10/31 01:38:25;;;;;;;73.43;41.35;;;128.90;2252.80;;;;;;5092910;28;20020;-78
2021/10/31 01:41:11;;;;;;;64.88;40.50;;;128.70;2252.80;;;;;;5092531;28;20460;-75
2021/10/31 01:43:48;;;;;;;71.93;41.88;;;128.60;2252.80;;;;;;5094045;28;20016;-77
2021/10/31 01:46:25;;;;;;;56.67;37.90;;;128.20;2252.80;;;;;;5092693;28;20117;-78
2021/10/31 01:49:09;;;;;;;66.88;41.78;;;128.50;2252.80;;;;;;5092510;28;20020;-78
2021/10/31 01:51:58;;;;;;;73.53;43.50;;;128.50;2252.80;;;;;;5092467;28;20020;-75
2021/10/31 01:54:35;;;;;;;69.28;40.97;;;128.50;2252.80;;;;;;5093450;28;20428;-78
2021/10/31 01:57:07;;;;;;;70.45;41.00;;;128.60;2252.80;;;;;;5092782;28;20109;-76
2021/10/31 01:59:41;;;;;;;66.10;40.33;;;128.60;2252.80;;;;;;5094013;28;20030;-78
2021/10/31 02:02:10;;;;;;;67.90;39.10;;;128.30;2252.80;;;;;;5092326;28;20126;-76
2021/10/31 02:04:38;;;;;;;60.25;34.80;;;128.30;2252.80;;;;;;5092455;28;20471;-74
2021/10/31 02:07:06;;;;;;;61.20;36.67;;;128.40;2252.80;;;;;;5092531;28;20016;-78
2021/10/31 02:09:33;;;;;;;56.75;35.78;;;128.40;2252.80;;;;;;5092327;28;20028;-76
2021/10/31 02:12:01;;;;;;;58.35;36.80;;;128.50;2252.80;;;;;;5092501;28;20173;-76
2021/10/31 02:14:27;;;;;;;62.25;36.63;;;128.10;2252.80;;;;;;5092586;28;20357;-77
2021/10/31 02:16:58;;;;;;;60.90;34.35;;;128.30;2252.80;;;;;;5092327;28;20035;-75
2021/10/31 02:19:34;;;;;;;57.45;34.63;;;128.40;2252.80;;;;;;5092442;28;20357;-76
2021/10/31 02:22:03;;;;;;;58.97;35.58;;;128.20;2252.80;;;;;;5093589;28;20016;-76
2021/10/31 02:24:30;;;;;;;64.18;37.03;;;128.40;2252.80;;;;;;5093680;28;20099;-77
2021/10/31 02:26:56;;;;;;;77.20;43.42;;;128.50;2252.80;;;;;;5092374;28;20118;-75
2021/10/31 02:29:23;;;;;;;55.45;34.60;;;128.20;2252.80;;;;;;5092167;28;20028;-78
2021/10/31 02:31:49;;;;;;;49.58;32.80;;;103.30;2227.20;;;;;;5092407;28;20058;-77
2021/10/31 02:34:14;;;;;;;54.30;34.33;;;128.10;2252.80;;;;;;5092379;28;20052;-76
2021/10/31 02:36:40;;;;;;;50.42;31.48;;;128.20;2252.80;;;;;;5093268;28;20055;-78
2021/10/31 02:39:08;;;;;;;44.50;29.40;;;103.30;2227.20;;;;;;5093272;28;20467;-78
2021/10/31 02:41:35;;;;;;;40.55;28.30;;;103.00;2227.20;;;;;;5092277;28;20363;-76
2021/10/31 02:44:02;;;;;;;47.58;28.63;;;103.20;2227.20;;;;;;5091917;28;20028;-77
2021/10/31 02:46:33;;;;;;;47.63;29.77;;;103.30;2227.20;;;;;;5092248;28;20032;-78
2021/10/31 02:49:01;;;;;;;48.10;30.38;;;103.20;2227.20;;;;;;5092288;28;20016;-78
2021/10/31 02:51:47;;;;;;;43.33;29.10;;;103.30;2227.20;;;;;;5091877;28;20031;-78
2021/10/31 02:54:27;;;;;;;52.15;33.55;;;128.10;2252.80;;;;;;5092253;28;20032;-78
2021/10/31 02:57:19;;;;;;;54.17;34.35;;;128.10;2252.80;;;;;;5091854;28;20115;-78
2021/10/31 02:59:47;;;;;;;47.25;29.80;;;103.30;2227.20;;;;;;5092027;28;20020;-77
2021/10/31 03:02:14;;;;;;;52.40;32.53;;;103.30;2227.20;;;;;;5092240;28;20016;-76
2021/10/31 03:04:41;;;;;;;48.15;30.30;;;128.10;2252.80;;;;;;5095045;28;20024;-75
2021/10/31 03:07:07;;;;;;;49.10;29.05;;;128.40;2252.80;;;;;;5097239;28;20483;-76
2021/10/31 03:09:35;;;;;;;50.55;33.03;;;128.30;2252.80;;;;;;5095680;28;20048;-78
2021/10/31 03:12:09;;;;;;;58.10;34.38;;;128.00;2252.80;;;;;;5095332;28;20523;-80
2021/10/31 03:14:36;;;;;;;46.55;31.27;;;128.20;2252.80;;;;;;5095508;28;20421;-77
2021/10/31 03:17:04;;;;;;;48.97;32.00;;;103.30;2227.20;;;;;;5095525;28;20341;-75
2021/10/31 03:19:30;;;;;;;48.25;31.08;;;103.30;2227.20;;;;;;5095383;28;20471;-74
2021/10/31 03:21:56;;;;;;;45.92;30.88;;;103.10;2227.20;;;;;;5095415;28;20024;-76
2021/10/31 03:24:22;;;;;;;41.60;27.50;;;103.20;2227.20;;;;;;5096615;28;20028;-78
2021/10/31 03:26:48;;;;;;;46.90;29.73;;;128.00;2252.80;;;;;;5095019;28;20032;-75
2021/10/31 03:29:14;;;;;;;81.03;44.67;;;128.00;2252.80;;;;;;5094981;28;20030;-76
2021/10/31 03:31:40;;;;;;;92.22;47.15;;;103.30;2227.20;;;;;;5095038;28;20080;-74
2021/10/31 03:34:06;;;;;;;56.10;36.08;;;103.20;2227.20;;;;;;5095161;28;20016;-77
2021/10/31 03:36:32;;;;;;;68.07;38.63;;;103.30;2227.20;;;;;;5095306;28;20027;-76
2021/10/31 03:38:58;;;;;;;59.90;35.78;;;103.20;2227.20;;;;;;5094753;28;20059;-74
2021/10/31 03:41:24;;;;;;;56.35;33.97;;;103.30;2227.20;;;;;;5095067;28;20050;-79
2021/10/31 03:43:50;;;;;;;49.92;31.35;;;103.30;2227.20;;;;;;5094985;28;20431;-79
2021/10/31 03:46:16;;;;;;;52.13;34.25;;;128.00;2252.80;;;;;;5094588;28;20039;-77
2021/10/31 03:48:42;;;;;;;51.80;31.52;;;128.10;2252.80;;;;;;5094959;28;20019;-78
2021/10/31 03:51:07;;;;;;;49.83;30.80;;;128.40;2252.80;;;;;;5094792;28;20485;-78
2021/10/31 03:53:34;;;;;;;48.60;31.95;;;128.50;2252.80;;;;;;5094515;28;20020;-75
2021/10/31 03:56:01;;;;;;;57.45;35.45;;;128.60;2252.80;;;;;;5094640;28;20031;-81
2021/10/31 03:58:27;;;;;;;62.33;37.25;;;128.20;2252.80;;;;;;5094789;28;20020;-80
2021/10/31 04:00:52;;;;;;;60.08;36.75;;;103.20;2227.20;;;;;;5094061;28;20093;-77
2021/10/31 04:03:18;;;;;;;67.43;39.28;;;103.10;2227.20;;;;;;5095514;28;20099;-77
2021/10/31 04:05:44;;;;;;;65.85;39.72;;;103.10;2227.20;;;;;;5094484;28;20028;-80
2021/10/31 04:08:10;;;;;;;66.45;38.38;;;103.00;2227.20;;;;;;5095471;28;20031;-81
2021/10/31 04:10:36;;;;;;;68.82;41.38;;;103.10;2227.20;;;;;;5094327;28;20020;-78
2021/10/31 04:13:02;;;;;;;67.10;43.13;;;103.10;2227.20;;;;;;5094459;28;20039;-77
2021/10/31 04:15:28;;;;;;;56.75;38.63;;;102.90;2227.20;;;;;;5092914;28;20098;-79
2021/10/31 04:17:54;;;;;;;56.60;33.90;;;103.10;2227.20;;;;;;5094327;28;20078;-79
2021/10/31 04:20:20;;;;;;;46.70;35.08;;;102.90;2227.20;;;;;;5094467;28;20026;-78
2021/10/31 04:22:47;;;;;;;47.60;31.20;;;102.90;2227.20;;;;;;5095411;28;20090;-76
2021/10/31 04:25:13;;;;;;;45.80;29.65;;;102.90;2227.20;;;;;;5095197;28;20019;-78
2021/10/31 04:27:39;;;;;;;44.67;27.45;;;103.00;2227.20;;;;;;5093848;28;20089;-75
2021/10/31 04:30:08;;;;;;;40.03;27.30;;;103.00;2227.20;;;;;;5094058;28;20019;-79
2021/10/31 04:32:34;;;;;;;50.13;29.95;;;102.90;2227.20;;;;;;5094029;28;20460;-75
2021/10/31 04:35:00;;;;;;;42.75;27.83;;;102.90;2227.20;;;;;;5093594;28;20455;-80
2021/10/31 04:37:28;;;;;;;47.20;30.55;;;102.90;2227.20;;;;;;5093984;28;20136;-76
2021/10/31 04:39:53;;;;;;;44.90;30.50;;;102.80;2227.20;;;;;;5093597;28;20016;-80
2021/10/31 04:42:20;;;;;;;43.35;29.25;;;102.80;2227.20;;;;;;5093513;28;20022;-77
2021/10/31 04:44:45;;;;;;;43.65;28.48;;;103.30;2227.20;;;;;;5093418;28;20108;-76
2021/10/31 04:47:11;;;;;;;75.70;43.78;;;102.90;2227.20;;;;;;5093719;28;20046;-80
2021/10/31 04:49:37;;;;;;;61.55;36.75;;;102.80;2227.20;;;;;;5093278;28;20027;-79
2021/10/31 04:52:04;;;;;;;57.80;37.72;;;102.70;2227.20;;;;;;5093654;28;20023;-77
2021/10/31 04:54:31;;;;;;;52.95;32.97;;;102.80;2227.20;;;;;;5093607;28;20020;-77
2021/10/31 04:56:57;;;;;;;51.95;32.20;;;102.90;2227.20;;;;;;5094658;28;20024;-78
2021/10/31 04:59:23;;;;;;;47.70;31.67;;;102.70;2227.20;;;;;;5093462;28;20077;-76
2021/10/31 05:01:49;;;;;;;46.97;30.58;;;102.60;2227.20;;;;;;5094868;28;20067;-78
2021/10/31 05:04:16;;;;;;;47.72;31.45;;;102.50;2227.20;;;;;;5093198;28;20024;-78
2021/10/31 05:06:42;;;;;;;52.22;34.28;;;102.60;2227.20;;;;;;5094572;28;20028;-78
2021/10/31 05:09:08;;;;;;;56.35;33.58;;;102.60;2227.20;;;;;;5093284;28;20405;-78
2021/10/31 05:11:33;;;;;;;47.35;31.38;;;102.60;2227.20;;;;;;5093233;28;20027;-77
2021/10/31 05:13:59;;;;;;;53.88;33.90;;;102.60;2227.20;;;;;;5093398;28;20028;-80
2021/10/31 05:16:25;;;;;;;57.75;36.80;;;102.40;2227.20;;;;;;5094499;28;20422;-79
2021/10/31 05:18:51;;;;;;;59.08;35.42;;;102.90;2227.20;;;;;;5092711;28;20020;-78
2021/10/31 05:21:17;;;;;;;56.65;36.40;;;102.50;2227.20;;;;;;5093291;28;20043;-76
2021/10/31 05:23:43;;;;;;;66.15;37.83;;;102.40;2227.20;;;;;;5092793;28;20444;-75
2021/10/31 05:26:09;;;;;;;58.30;37.10;;;102.40;2227.20;;;;;;5093981;28;20028;-76
2021/10/31 05:28:34;;;;;;;71.18;39.17;;;77.60;2227.20;;;;;;5093036;28;20361;-78
2021/10/31 05:31:00;;;;;;;62.20;37.45;;;77.60;2227.20;;;;;;5092636;28;20024;-79
2021/10/31 05:33:26;;;;;;;61.03;38.13;;;77.60;2227.20;;;;;;5092982;28;20024;-78
2021/10/31 05:35:52;;;;;;;64.43;40.25;;;77.70;2227.20;;;;;;5092863;28;20521;-79
2021/10/31 05:38:20;;;;;;;73.72;44.10;;;102.40;2227.20;;;;;;5092505;28;20047;-76
2021/10/31 05:40:50;;;;;;;66.18;40.45;;;77.60;2227.20;;;;;;5092914;28;20055;-79
2021/10/31 05:43:16;;;;;;;64.03;40.63;;;77.70;2227.20;;;;;;5094085;28;20016;-80
2021/10/31 05:45:43;;;;;;;73.18;43.63;;;102.40;2227.20;;;;;;5092588;28;20063;-81
2021/10/31 05:48:10;;;;;;;89.82;49.00;;;102.60;2227.20;;;;;;5092755;28;20016;-76
2021/10/31 05:50:36;;;;;;;88.32;55.15;;;102.50;2227.20;;;;;;5092698;28;20016;-76
2021/10/31 05:53:03;;;;;;;77.22;49.40;;;102.40;2227.20;;;;;;5092501;28;20115;-79
2021/10/31 05:55:29;;;;;;;93.82;62.75;;;102.50;2227.20;;;;;;5092900;28;20348;-78
2021/10/31 05:57:55;;;;;;;86.35;52.88;;;77.70;2227.20;;;;;;5092689;28;20111;-80
2021/10/31 06:00:21;;;;;;;79.53;51.85;;;77.60;2227.20;;;;;;5092112;28;20131;-80
2021/10/31 06:02:48;;;;;;;76.38;45.22;;;102.50;2227.20;;;;;;5092598;28;20034;-76
2021/10/31 06:05:18;;;;;;;84.45;53.28;;;102.60;2227.20;;;;;;5092598;28;20035;-77
2021/10/31 06:07:44;;;;;;;121.82;77.65;;;102.60;2227.20;;;;;;5092242;28;20016;-78
2021/10/31 06:10:11;;;;;;;159.63;101.07;;;102.70;2227.20;;;;;;5093818;28;20020;-76
2021/10/31 06:12:41;;;;;;;86.80;53.08;;;102.70;2227.20;;;;;;5092534;28;20119;-79
2021/10/31 06:15:07;;;;;;;98.93;60.92;;;102.80;2227.20;;;;;;5092598;28;20405;-77
2021/10/31 06:17:34;;;;;;;84.70;53.75;;;102.90;2227.20;;;;;;5092567;28;20114;-78
2021/10/31 06:20:01;;;;;;;95.43;57.72;;;102.90;2227.20;;;;;;5092203;28;20103;-77
2021/10/31 06:22:27;;;;;;;285.67;175.48;;;102.80;2227.20;;;;;;5093761;28;20519;-78
2021/10/31 06:24:53;;;;;;;138.60;88.47;;;102.80;2227.20;;;;;;5092372;28;20021;-75
2021/10/31 06:27:18;;;;;;;82.45;51.85;;;102.80;2227.20;;;;;;5093181;28;20371;-76
2021/10/31 06:29:44;;;;;;;135.13;88.82;;;102.90;2227.20;;;;;;5092055;28;20016;-77
2021/10/31 06:32:10;;;;;;;87.72;55.42;;;102.80;2227.20;;;;;;5092269;28;20119;-79
2021/10/31 06:34:36;;;;;;;111.80;74.63;;;102.70;2227.20;;;;;;5092050;28;20032;-78
2021/10/31 06:37:02;;;;;;;123.70;80.55;;;102.70;2227.20;;;;;;5092841;28;20020;-80
2021/10/31 06:39:28;;;;;;;123.28;76.93;;;102.80;2227.20;;;;;;5095866;28;20020;-82
2021/10/31 06:41:53;;;;;;;92.20;57.53;;;102.90;2227.20;;;;;;5097867;28;20478;-81
2021/10/31 06:44:19;;;;;;;208.65;130.27;;;103.10;2227.20;;;;;;5096337;28;20024;-82
2021/10/31 06:46:45;;;;;;;122.40;79.13;;;102.90;2227.20;;;;;;5096051;28;20028;-81
2021/10/31 06:49:12;;;;;;;90.55;60.10;;;103.00;2227.20;;;;;;5095830;28;20024;-82
2021/10/31 06:51:39;;;;;;;77.25;47.13;;;103.10;2227.20;;;;;;5095991;28;20024;-79
2021/10/31 06:54:05;;;;;;;74.63;46.75;;;103.00;2227.20;;;;;;5095970;28;20081;-82
2021/10/31 06:56:30;;;;;;;85.05;51.42;;;103.00;2227.20;;;;;;5095802;28;20398;-80
2021/10/31 06:58:58;;;;;;;74.72;47.67;;;103.00;2227.20;;;;;;5095924;28;20027;-81
2021/10/31 07:01:24;;;;;;;80.97;53.70;;;103.00;2227.20;;;;;;5095611;28;20051;-80
2021/10/31 07:03:49;;;;;;;78.10;49.22;;;103.00;2227.20;;;;;;5095542;28;20020;-78
2021/10/31 07:06:16;;;;;;;76.95;52.30;;;103.00;2227.20;;;;;;5095794;28;20028;-82
2021/10/31 07:08:43;;;;;;;75.35;48.72;;;103.20;2227.20;;;;;;5096025;28;20463;-80
2021/10/31 07:11:09;;;;;;;61.10;41.80;;;103.20;2227.20;;;;;;5095762;28;20394;-81
2021/10/31 07:13:35;;;;;;;61.10;42.10;;;128.00;2252.80;;;;;;5095662;28;20024;-82
2021/10/31 07:16:01;;;;;;;61.72;44.10;;;128.00;2252.80;;;;;;5097015;28;20027;-82
2021/10/31 07:18:27;;;;;;;62.35;40.58;;;128.20;2252.80;;;;;;5095633;28;20467;-81
2021/10/31 07:20:53;;;;;;;57.80;38.13;;;128.20;2252.80;;;;;;5095585;28;20027;-80
2021/10/31 07:23:19;;;;;;;57.97;36.83;;;128.30;2252.80;;;;;;5095391;28;20027;-78
2021/10/31 07:25:44;;;;;;;61.67;39.72;;;128.50;2252.80;;;;;;5095432;28;20525;-81
2021/10/31 07:28:10;;;;;;;62.50;39.00;;;128.60;2252.80;;;;;;5095534;28;20345;-80
2021/10/31 07:30:36;;;;;;;61.72;43.53;;;128.70;2252.80;;;;;;5096084;28;20044;-79
2021/10/31 07:33:02;;;;;;;69.80;47.95;;;128.80;2252.80;;;;;;5095373;28;20106;-77
2021/10/31 07:35:30;;;;;;;62.38;40.67;;;128.90;2252.80;;;;;;5095361;28;20024;-78
2021/10/31 07:37:56;;;;;;;67.10;44.38;;;153.60;2252.80;;;;;;5095138;28;20016;-79
2021/10/31 07:40:23;;;;;;;58.55;38.03;;;153.80;2252.80;;;;;;5096187;28;20012;-81
2021/10/31 07:42:50;;;;;;;64.78;43.05;;;153.90;2252.80;;;;;;5095076;28;20031;-76
2021/10/31 07:45:16;;;;;;;61.42;38.38;;;154.00;2252.80;;;;;;5102890;28;20063;-74
2021/10/31 07:47:42;;;;;;;103.45;64.03;;;154.20;2252.80;;;;;;5110235;28;20035;-73
2021/10/31 07:50:09;;;;;;;96.30;57.85;;;154.30;2252.80;;;;;;5109027;28;20083;-73
2021/10/31 07:52:36;;;;;;;64.53;40.72;;;154.30;2252.80;;;;;;5109117;28;20027;-72
2021/10/31 07:55:04;;;;;;;59.92;39.35;;;154.00;2252.80;;;;;;5107606;28;20406;-73
2021/10/31 07:57:33;;;;;;;57.30;38.67;;;154.50;2252.80;;;;;;5109016;28;20087;-74
2021/10/31 07:59:59;;;;;;;78.30;51.42;;;154.50;2252.80;;;;;;5107630;28;20104;-74
2021/10/31 08:02:24;;;;;;;124.47;68.10;;;179.20;2252.80;;;;;;5108608;28;20024;-73
2021/10/31 08:04:50;;;;;;;80.95;51.60;;;179.30;2252.80;;;;;;5109305;28;20024;-73
2021/10/31 08:07:17;;;;;;;89.50;63.78;;;179.40;2252.80;;;;;;5107889;28;20024;-73
2021/10/31 08:09:42;;;;;;;69.03;46.63;;;179.60;2252.80;;;;;;5107243;28;20069;-72
2021/10/31 08:12:09;;;;;;;58.75;41.45;;;179.70;2252.80;;;;;;5108294;28;20071;-73
2021/10/31 08:14:35;;;;;;;65.88;46.55;;;179.90;2252.80;;;;;;5106973;28;20034;-78
2021/10/31 08:17:01;;;;;;;53.78;36.83;;;180.00;2252.80;;;;;;5107897;28;20044;-74
2021/10/31 08:19:26;;;;;;;58.50;40.55;;;204.80;2252.80;;;;;;5094619;28;20077;-77
2021/10/31 08:21:53;;;;;;;48.65;33.65;;;204.90;2252.80;;;;;;5094252;28;20020;-77
2021/10/31 08:24:20;;;;;;;43.83;31.45;;;205.00;2252.80;;;;;;5095775;28;20024;-76
2021/10/31 08:26:47;;;;;;;38.42;28.85;;;205.10;2252.80;;;;;;5093613;28;20032;-76
2021/10/31 08:29:16;;;;;;;43.67;30.55;;;205.10;2252.80;;;;;;5095345;28;20016;-74
2021/10/31 08:31:43;;;;;;;45.30;30.58;;;205.20;2252.80;;;;;;5093953;28;20022;-76
2021/10/31 08:34:09;;;;;;;42.05;28.83;;;205.40;2252.80;;;;;;5093690;28;20016;-75
2021/10/31 08:36:36;;;;;;;42.08;28.08;;;205.50;2252.80;;;;;;5095219;28;20069;-76
2021/10/31 08:39:04;;;;;;;56.45;41.95;;;205.60;2252.80;;;;;;5093785;28;20448;-75
2021/10/31 08:41:30;;;;;;;44.03;32.40;;;230.40;2252.80;;;;;;5093605;28;20363;-74
2021/10/31 08:44:00;;;;;;;42.15;29.50;;;205.70;2252.80;;;;;;5093693;28;20016;-73
2021/10/31 08:46:30;;;;;;;43.05;32.60;;;230.40;2252.80;;;;;;5093628;28;20028;-75
2021/10/31 08:48:56;;;;;;;52.33;37.35;;;230.50;2252.80;;;;;;5093425;28;20020;-77
2021/10/31 08:51:24;;;;;;;49.53;36.65;;;205.60;2252.80;;;;;;5093709;28;20372;-77
2021/10/31 08:53:51;;;;;;;48.42;33.90;;;230.70;2252.80;;;;;;5093235;28;20032;-75
2021/10/31 08:56:17;;;;;;;48.95;36.10;;;230.90;2252.80;;;;;;5093622;28;20028;-76
2021/10/31 08:58:43;;;;;;;48.50;35.22;;;230.90;2252.80;;;;;;5093588;28;20436;-74
2021/10/31 09:01:14;;;;;;;45.03;33.22;;;230.60;2252.80;;;;;;5092480;28;20109;-76
2021/10/31 09:03:41;;;;;;;47.50;33.35;;;231.00;2252.80;;;;;;5093441;28;20020;-74
2021/10/31 09:06:10;;;;;;;56.15;37.55;;;231.20;2252.80;;;;;;5094460;28;20089;-76
2021/10/31 09:08:36;;;;;;;48.60;35.72;;;231.30;2252.80;;;;;;5093054;28;20016;-76
2021/10/31 09:11:02;;;;;;;47.50;32.35;;;256.00;2252.80;;;;;;5093229;28;20030;-75
2021/10/31 09:13:28;;;;;;;46.60;33.65;;;256.30;2252.80;;;;;;5093179;28;20111;-75
2021/10/31 09:15:54;;;;;;;51.70;35.70;;;256.40;2252.80;;;;;;5092806;28;20028;-75
2021/10/31 09:18:20;;;;;;;49.63;35.67;;;256.60;2252.80;;;;;;5093172;28;20020;-75
2021/10/31 09:20:46;;;;;;;49.10;35.88;;;256.70;2252.80;;;;;;5094913;28;20065;-76
2021/10/31 09:23:13;;;;;;;40.88;30.33;;;256.90;2252.80;;;;;;5092839;28;20115;-76
2021/10/31 09:25:39;;;;;;;34.83;28.10;;;281.70;2278.40;;;;;;5093036;28;20032;-74
2021/10/31 09:28:06;;;;;;;43.17;29.48;;;281.70;2278.40;;;;;;5093024;28;20129;-76
2021/10/31 09:30:35;;;;;;;34.65;25.45;;;281.90;2278.40;;;;;;5093778;28;20016;-76
2021/10/31 09:33:01;;;;;;;34.55;28.08;;;281.90;2278.40;;;;;;5092577;28;20051;-75
2021/10/31 09:35:30;;;;;;;38.50;29.33;;;282.00;2278.40;;;;;;5093011;28;20031;-76
2021/10/31 09:38:01;;;;;;;40.78;27.15;;;282.20;2278.40;;;;;;5092596;28;20027;-76
2021/10/31 09:40:27;;;;;;;32.95;24.70;;;282.40;2278.40;;;;;;5093020;28;20024;-75
2021/10/31 09:42:54;;;;;;;26.80;21.45;;;282.50;2278.40;;;;;;5093770;28;20066;-76
2021/10/31 09:45:22;;;;;;;31.95;22.80;;;307.30;2304.00;;;;;;5092864;28;20059;-75
2021/10/31 09:47:59;;;;;;;28.75;22.05;;;307.40;2304.00;;;;;;5092708;28;20118;-77
2021/10/31 09:50:27;;;;;;;39.67;25.42;;;307.50;2304.00;;;;;;5092178;28;20115;-75
2021/10/31 09:52:53;;;;;;;31.27;22.20;;;307.60;2304.00;;;;;;5092737;28;20027;-77
2021/10/31 09:55:19;;;;;;;26.98;21.77;;;307.80;2304.00;;;;;;5092627;28;20020;-76
2021/10/31 09:57:45;;;;;;;32.67;25.77;;;308.00;2304.00;;;;;;5092311;28;20023;-76
2021/10/31 10:00:13;;;;;;;29.33;23.08;;;308.00;2304.00;;;;;;5092344;28;20063;-73
2021/10/31 10:05:18;;;;;;;41.60;31.85;;;332.80;2329.60;;;;;;5093555;28;20047;-76
2021/10/31 10:07:44;;;;;;;33.15;24.35;;;333.00;2329.60;;;;;;5092535;28;20024;-75
2021/10/31 10:10:13;;;;;;;43.63;32.30;;;333.20;2329.60;;;;;;5092453;28;20020;-75
2021/10/31 10:12:39;;;;;;;35.88;26.95;;;333.20;2329.60;;;;;;5093732;28;20013;-75
2021/10/31 10:15:08;;;;;;;36.65;25.08;;;333.40;2329.60;;;;;;5096592;28;20028;-76
2021/10/31 10:17:50;;;;;;;24.27;18.58;;;333.40;2329.60;;;;;;5097908;28;20074;-76
2021/10/31 10:20:17;;;;;;;39.70;30.23;;;333.50;2329.60;;;;;;5096520;28;20118;-76
2021/10/31 10:22:44;;;;;;;40.22;31.38;;;333.40;2329.60;;;;;;5097444;28;20367;-77
2021/10/31 10:25:11;;;;;;;35.65;29.20;;;333.60;2329.60;;;;;;5096015;28;20070;-75
2021/10/31 10:27:55;;;;;;;27.13;22.45;;;333.70;2329.60;;;;;;5096437;28;20482;-74
2021/10/31 10:30:23;;;;;;;28.98;22.40;;;358.60;2329.60;;;;;;5096293;28;20107;-76
2021/10/31 10:32:58;;;;;;;31.52;22.83;;;358.50;2329.60;;;;;;5096021;28;20031;-76
2021/10/31 10:35:27;;;;;;;37.35;28.23;;;358.70;2329.60;;;;;;5096260;28;20406;-78
2021/10/31 10:37:54;;;;;;;30.02;22.75;;;358.70;2329.60;;;;;;5096190;28;20031;-78
2021/10/31 10:40:26;;;;;;;33.05;25.55;;;358.80;2329.60;;;;;;5097141;28;20069;-77
2021/10/31 10:42:56;;;;;;;28.05;20.98;;;358.90;2329.60;;;;;;5096199;28;20023;-75
2021/10/31 10:45:33;;;;;;;29.50;22.80;;;358.90;2329.60;;;;;;5096267;28;20035;-75
2021/10/31 10:48:03;;;;;;;25.33;18.08;;;359.30;2329.60;;;;;;5095742;28;20043;-76
2021/10/31 10:50:35;;;;;;;21.67;17.73;;;359.10;2329.60;;;;;;5097286;28;20020;-77
2021/10/31 10:53:01;;;;;;;20.35;16.08;;;359.20;2329.60;;;;;;5096688;28;20452;-77
2021/10/31 10:55:29;;;;;;;21.73;17.27;;;358.80;2329.60;;;;;;5097437;28;20027;-75
2021/10/31 10:57:59;;;;;;;27.42;20.92;;;359.20;2329.60;;;;;;5095756;28;20482;-79
2021/10/31 11:00:37;;;;;;;27.63;20.02;;;359.30;2329.60;;;;;;5096922;28;20105;-77
2021/10/31 11:03:09;;;;;;;25.13;19.52;;;384.00;2329.60;;;;;;5095701;28;20447;-79
2021/10/31 11:05:43;;;;;;;19.63;15.60;;;384.10;2329.60;;;;;;5095644;28;20073;-77
2021/10/31 11:08:15;;;;;;;20.30;15.85;;;384.40;2329.60;;;;;;5095386;28;20106;-78
2021/10/31 11:10:55;;;;;;;28.45;20.30;;;384.80;2329.60;;;;;;5096929;28;20016;-78
2021/10/31 11:13:27;;;;;;;21.63;17.73;;;409.70;2355.20;;;;;;5096576;28;20020;-77
2021/10/31 11:15:59;;;;;;;21.73;16.73;;;410.00;2355.20;;;;;;5096217;28;20028;-77
2021/10/31 11:18:25;;;;;;;18.95;15.00;;;410.20;2355.20;;;;;;5096517;28;20016;-76
2021/10/31 11:20:51;;;;;;;28.25;20.65;;;435.20;2278.40;;;;;;5094987;28;20031;-77
2021/10/31 11:23:23;;;;;;;52.35;35.53;;;435.60;2227.20;;;;;;5094996;28;20122;-77
2021/10/31 11:25:50;;;;;;;39.15;31.13;;;435.80;2227.20;;;;;;5095118;28;20028;-78
2021/10/31 11:28:18;;;;;;;83.32;54.97;;;436.10;2252.80;;;;;;5095963;28;20020;-77
2021/10/31 11:30:48;;;;;;;56.20;39.10;;;460.80;2201.60;;;;;;5095213;28;20026;-77
2021/10/31 11:33:15;;;;;;;42.83;25.17;;;461.00;2176.00;;;;;;5095437;28;20050;-79
2021/10/31 11:35:42;;;;;;;21.67;17.23;;;461.10;2150.40;;;;;;5096040;28;20076;-77
2021/10/31 11:38:12;;;;;;;23.17;17.58;;;461.20;2099.20;;;;;;5095071;28;20035;-78
2021/10/31 11:40:42;;;;;;;43.92;24.40;;;461.40;2048.00;;;;;;5095094;28;20452;-77
2021/10/31 11:43:23;;;;;;;24.92;19.17;;;461.50;2048.00;;;;;;5094663;28;20031;-77
2021/10/31 11:45:52;;;;;;;47.30;28.42;;;461.70;2048.00;;;;;;5094968;28;20031;-77
2021/10/31 11:48:28;;;;;;;28.17;23.67;;;486.40;2022.40;;;;;;5094943;28;20348;-76
2021/10/31 11:51:02;;;;;;;22.27;17.60;;;486.40;1971.20;;;;;;5094580;28;20028;-77
2021/10/31 11:53:39;;;;;;;67.70;54.72;;;486.60;1996.80;;;;;;5094870;28;20020;-78
2021/10/31 11:56:23;;;;;;;23.55;20.33;;;486.70;1920.00;;;;;;5094280;28;20027;-76
2021/10/31 11:59:14;;;;;;;22.73;18.88;;;486.80;1868.80;;;;;;5094742;28;20020;-77
2021/10/31 12:01:52;;;;;;;24.20;19.85;;;487.00;1894.40;;;;;;5094460;28;20483;-78
2021/10/31 12:07:45;;;;;;;23.25;18.88;;;487.10;1894.40;;;;;;5095397;28;20352;-74
2021/10/31 12:10:49;;;;;;;27.40;22.73;;;487.20;1894.40;;;;;;5091507;28;20126;-76
2021/10/31 12:13:22;;;;;;;43.38;35.67;;;487.30;1843.20;;;;;;5095598;28;20024;-76